Hlavní strana
METAR-TAF:

METAR-TAF

Letiště :

Malabo, Rovníková Guinea

zeměpisná šířka: 03-45-18N, zeměpisná délka: 08-42-31E, výška: 23 m

Aktuální stav počasí

Zpráva byla vytvořena před 1 hodinou a 13 minutami, v 22:00 UTC
Bezvětří
Teplota 25°C
Vlhkost vzduchu 89%
Tlak 1012 hPa
Viditelnost 10 km a více
Skoro jasno ve výšce 1200 ft

METAR: FGSL 222200Z 00000KT 9999 FEW012 25/23 Q1012 NOSIG

Čas: 00:13 (23:13 UTC)

Předpověď počasí

Zpráva byla vytvořena před 6 hodinami a 13 minutami, v 17:00 UTC
Předpověď platná od 22 v 18 UTC do 23 v 24 UTC
Západojihozápadní vítr 8 kt
Viditelnost 10 km a více
Polojasno ve výšce 1200 ft
Dočasný
od 22 v 21 UTC do 23 v 06 UTC
Oblačno až skoro zataženo ve výšce 1000 ft
Skoro jasno ve výšce 2000 ft, Cumulonimbus.
bouřka
Dočasný
od 23 v 12 UTC do 23 v 18 UTC
Oblačno až skoro zataženo ve výšce 1200 ft
Skoro jasno ve výšce 2000 ft, Cumulonimbus.

TAF: FGSL 221700Z 2218/2324 24008KT 9999 SCT012 TEMPO 2221/2306 TS BKN010 FEW020CB TEMPO 2312/2318 BKN012 FEW020CB

Stav a předpovědi počasí z více než 4 000 letišť (zprávy METAR a TAF).

Červené a žluté tečky na mapě představují dostupné meteorologické stanice.

Když kurzor umístíte na tečku, zobrazí se název stanice.

Pak kliknutím zobrazíte stav a předpověď počasí.

Chcete-li změnit mapu, kliknutím na zelené tlačítko se znaménkem +mapu přiblížíte, kliknutím na zelené tlačítko se znaménkem – mapu oddálíte a kliknutím na zelené šipky přejdete na sousední mapy.


METAR-TAF: